createdAt,value
2022-08-25T00:00:14.512Z,18.47
2022-08-25T00:02:40.811Z,18.62
2022-08-25T00:05:20.368Z,18.78
2022-08-25T00:07:47.915Z,18.90
2022-08-25T00:10:14.158Z,18.91
2022-08-25T00:12:40.395Z,18.99
2022-08-25T00:15:06.960Z,19.03
2022-08-25T00:17:33.200Z,19.07
2022-08-25T00:19:59.425Z,19.11
2022-08-25T00:22:25.659Z,19.09
2022-08-25T00:24:51.879Z,18.83
2022-08-25T00:27:18.115Z,18.69
2022-08-25T00:29:44.348Z,18.78
2022-08-25T00:32:10.594Z,18.65
2022-08-25T00:34:37.265Z,18.41
2022-08-25T00:37:03.953Z,18.44
2022-08-25T00:39:30.220Z,18.54
2022-08-25T00:41:56.582Z,18.77
2022-08-25T00:44:22.878Z,18.85
2022-08-25T00:46:50.046Z,18.92
2022-08-25T00:49:25.401Z,18.98
2022-08-25T00:52:05.788Z,18.91
2022-08-25T00:54:32.792Z,18.90
2022-08-25T00:56:59.306Z,18.85
2022-08-25T00:59:25.541Z,18.85
2022-08-25T01:01:51.849Z,18.79
2022-08-25T01:04:18.198Z,18.76
2022-08-25T01:06:44.509Z,18.82
2022-08-25T01:09:11.101Z,18.74
2022-08-25T01:11:37.334Z,18.61
2022-08-25T01:14:03.583Z,18.55
2022-08-25T01:16:29.811Z,18.53
2022-08-25T01:18:56.607Z,18.54
2022-08-25T01:21:23.253Z,18.58
2022-08-25T01:23:49.581Z,18.49
2022-08-25T01:26:19.875Z,18.33
2022-08-25T01:28:56.967Z,18.33
2022-08-25T01:31:23.869Z,18.40
2022-08-25T01:33:50.614Z,18.18
2022-08-25T01:36:20.291Z,17.88
2022-08-25T01:38:46.547Z,17.67
2022-08-25T01:41:12.789Z,17.62
2022-08-25T01:43:39.043Z,17.58
2022-08-25T01:46:05.380Z,17.64
2022-08-25T01:48:31.675Z,17.71
2022-08-25T01:50:57.920Z,17.83
2022-08-25T01:53:28.081Z,18.06
2022-08-25T01:55:54.428Z,18.33
2022-08-25T01:58:21.642Z,18.39
2022-08-25T02:00:48.240Z,18.32
2022-08-25T02:03:18.630Z,18.32
2022-08-25T02:05:45.026Z,18.19
2022-08-25T02:08:14.434Z,18.15
2022-08-25T02:10:40.826Z,18.19
2022-08-25T02:13:07.201Z,18.22
2022-08-25T02:15:34.626Z,18.14
2022-08-25T02:18:00.874Z,18.12
2022-08-25T02:20:27.114Z,18.09
2022-08-25T02:22:57.106Z,18.05
2022-08-25T02:25:23.485Z,18.05
2022-08-25T02:27:49.739Z,18.11
2022-08-25T02:30:15.989Z,18.11
2022-08-25T02:32:42.243Z,18.19
2022-08-25T02:35:08.661Z,18.19
2022-08-25T02:37:34.992Z,18.19
2022-08-25T02:40:01.310Z,18.19
2022-08-25T02:42:27.624Z,18.26
2022-08-25T02:44:53.852Z,18.29
2022-08-25T02:47:20.306Z,18.31
2022-08-25T02:49:53.095Z,18.36
2022-08-25T02:52:19.336Z,18.44
2022-08-25T02:54:45.583Z,18.45
2022-08-25T02:57:11.824Z,18.40
2022-08-25T02:59:38.187Z,18.41
2022-08-25T03:02:04.693Z,18.44
2022-08-25T03:04:30.981Z,18.43
2022-08-25T03:06:57.500Z,18.40
2022-08-25T03:09:23.745Z,18.36
2022-08-25T03:11:49.991Z,18.38
2022-08-25T03:14:16.231Z,18.40
2022-08-25T03:16:42.524Z,18.43
2022-08-25T03:19:12.631Z,18.47
2022-08-25T03:21:38.896Z,18.51
2022-08-25T03:24:05.544Z,18.49
2022-08-25T03:26:31.793Z,18.46
2022-08-25T03:28:58.030Z,18.45
2022-08-25T03:31:24.627Z,18.48
2022-08-25T03:33:50.918Z,18.48
2022-08-25T03:36:17.157Z,18.51
2022-08-25T03:38:43.404Z,18.56
2022-08-25T03:41:13.270Z,18.52
2022-08-25T03:43:39.528Z,18.54
2022-08-25T03:46:05.851Z,18.53
2022-08-25T03:48:32.133Z,18.52
2022-08-25T03:50:58.365Z,18.48
2022-08-25T03:53:24.612Z,18.47
2022-08-25T03:55:50.855Z,18.53
2022-08-25T03:58:17.100Z,18.59
2022-08-25T04:00:43.547Z,18.63
2022-08-25T04:03:09.871Z,18.65
2022-08-25T04:05:36.114Z,18.59
2022-08-25T04:08:02.486Z,18.68
2022-08-25T04:10:28.954Z,18.74
2022-08-25T04:12:55.201Z,18.73
2022-08-25T04:15:21.444Z,18.72
2022-08-25T04:17:47.697Z,18.73
2022-08-25T04:20:17.384Z,18.73
2022-08-25T04:22:45.203Z,18.78
2022-08-25T04:25:11.515Z,18.82
2022-08-25T04:27:37.756Z,18.81
2022-08-25T04:30:04.846Z,18.85
2022-08-25T04:32:31.094Z,18.90
2022-08-25T04:34:57.365Z,18.94
2022-08-25T04:37:23.622Z,18.95
2022-08-25T04:39:49.918Z,18.99
2022-08-25T04:42:16.193Z,18.96
2022-08-25T04:44:42.430Z,18.95
2022-08-25T04:47:08.679Z,18.92
2022-08-25T04:49:35.373Z,18.99
2022-08-25T04:52:01.673Z,19.03
2022-08-25T04:54:27.921Z,19.11
2022-08-25T04:56:58.211Z,19.13
2022-08-25T04:59:25.078Z,19.10
2022-08-25T05:01:56.311Z,19.11
2022-08-25T05:04:28.212Z,19.13
2022-08-25T05:06:55.253Z,19.10
2022-08-25T05:09:21.750Z,19.17
2022-08-25T05:11:48.084Z,19.20
2022-08-25T05:14:14.982Z,19.17
2022-08-25T05:16:42.061Z,19.18
2022-08-25T05:19:08.343Z,19.19
2022-08-25T05:21:34.585Z,19.24
2022-08-25T05:24:01.032Z,19.17
2022-08-25T05:26:27.869Z,19.20
2022-08-25T05:28:54.336Z,19.22
2022-08-25T05:31:21.074Z,19.23
2022-08-25T05:33:47.402Z,19.23
2022-08-25T05:36:13.675Z,19.19
2022-08-25T05:38:39.990Z,19.31
2022-08-25T05:41:07.228Z,19.39
2022-08-25T05:43:33.478Z,19.40
2022-08-25T05:45:59.793Z,19.44
2022-08-25T05:48:26.221Z,19.48
2022-08-25T05:50:52.855Z,19.47
2022-08-25T05:53:19.517Z,19.50
2022-08-25T05:55:45.750Z,19.45
2022-08-25T05:58:12.226Z,19.53
2022-08-25T06:00:40.734Z,19.57
2022-08-25T06:03:07.032Z,19.62
2022-08-25T06:05:33.271Z,19.69
2022-08-25T06:07:59.577Z,19.68
2022-08-25T06:10:25.897Z,19.67
2022-08-25T06:12:52.141Z,19.67
2022-08-25T06:15:20.098Z,19.68
2022-08-25T06:17:46.461Z,19.74
2022-08-25T06:20:13.634Z,19.72
2022-08-25T06:22:39.913Z,19.78
2022-08-25T06:25:06.492Z,19.90
2022-08-25T06:27:33.007Z,19.89
2022-08-25T06:29:59.245Z,19.94
2022-08-25T06:32:34.441Z,20.01
2022-08-25T06:35:00.677Z,20.04
2022-08-25T06:37:26.925Z,20.10
2022-08-25T06:39:53.268Z,20.10
2022-08-25T06:42:19.543Z,20.18
2022-08-25T06:44:45.786Z,20.22
2022-08-25T06:47:12.275Z,20.13
2022-08-25T06:49:38.528Z,20.17
2022-08-25T06:52:04.785Z,20.19
2022-08-25T06:54:31.038Z,20.30
2022-08-25T06:56:57.287Z,20.35
2022-08-25T06:59:24.344Z,20.33
2022-08-25T07:01:58.383Z,20.43
2022-08-25T07:04:25.298Z,20.44
2022-08-25T07:06:52.293Z,20.42
2022-08-25T07:09:18.528Z,20.46
2022-08-25T07:11:44.961Z,20.53
2022-08-25T07:14:11.680Z,20.51
2022-08-25T07:16:38.080Z,20.59
2022-08-25T07:19:08.304Z,20.76
2022-08-25T07:21:35.893Z,20.85
2022-08-25T07:24:04.113Z,20.80
2022-08-25T07:26:37.784Z,20.76
2022-08-25T07:29:08.928Z,20.72
2022-08-25T07:31:35.222Z,20.76
2022-08-25T07:34:01.514Z,20.91
2022-08-25T07:36:27.790Z,21.13
2022-08-25T07:38:54.178Z,21.18
2022-08-25T07:41:21.686Z,21.30
2022-08-25T07:43:47.932Z,21.23
2022-08-25T07:46:16.395Z,21.04
2022-08-25T07:48:43.134Z,21.36
2022-08-25T07:51:19.373Z,21.77
2022-08-25T07:53:45.677Z,21.89
2022-08-25T07:56:13.644Z,21.82
2022-08-25T07:58:40.107Z,22.29
2022-08-25T08:01:06.782Z,22.92
2022-08-25T08:03:50.310Z,22.64
2022-08-25T08:06:18.845Z,22.06
2022-08-25T08:08:45.320Z,21.87
2022-08-25T08:11:17.286Z,22.13
2022-08-25T08:13:43.798Z,22.22
2022-08-25T08:16:13.625Z,22.05
2022-08-25T08:18:40.169Z,22.48
2022-08-25T08:21:06.753Z,22.93
2022-08-25T08:23:32.999Z,23.17
2022-08-25T08:25:59.239Z,23.21
2022-08-25T08:28:25.822Z,23.24
2022-08-25T08:30:53.138Z,24.14
2022-08-25T08:33:20.631Z,24.41
2022-08-25T08:35:46.999Z,24.90
2022-08-25T08:38:18.449Z,24.89
2022-08-25T08:40:59.087Z,24.46
2022-08-25T08:43:25.342Z,24.84
2022-08-25T08:45:53.604Z,24.37
2022-08-25T08:48:26.169Z,24.61
2022-08-25T08:50:56.370Z,24.41
2022-08-25T08:53:24.633Z,23.89
2022-08-25T08:55:57.660Z,23.88
2022-08-25T08:58:26.330Z,24.24
2022-08-25T09:00:53.829Z,24.64
2022-08-25T09:03:32.396Z,25.08
2022-08-25T09:05:59.354Z,25.11
2022-08-25T09:08:26.579Z,25.62
2022-08-25T09:11:11.137Z,25.73
2022-08-25T09:13:45.643Z,25.90
2022-08-25T09:16:23.222Z,26.03
2022-08-25T09:19:06.678Z,25.93
2022-08-25T09:21:45.034Z,25.35
2022-08-25T09:24:20.026Z,25.16
2022-08-25T09:26:59.402Z,25.08
2022-08-25T09:29:27.491Z,24.95
2022-08-25T09:31:53.732Z,24.40
2022-08-25T09:34:24.251Z,24.20
2022-08-25T09:36:50.492Z,24.03
2022-08-25T09:39:16.741Z,24.35
2022-08-25T09:41:53.193Z,24.68
2022-08-25T09:44:20.704Z,24.48
2022-08-25T09:47:06.168Z,25.62
2022-08-25T09:49:35.920Z,26.18
2022-08-25T09:52:20.926Z,26.47
2022-08-25T09:54:47.691Z,26.76
2022-08-25T09:57:30.707Z,26.19
2022-08-25T09:59:57.952Z,25.43
2022-08-25T10:02:25.781Z,25.04
2022-08-25T10:04:52.430Z,25.51
2022-08-25T10:07:20.961Z,26.44
2022-08-25T10:10:13.661Z,26.70
2022-08-25T10:12:43.116Z,26.78
2022-08-25T10:15:30.131Z,27.07
2022-08-25T10:17:57.156Z,26.72
2022-08-25T10:20:25.207Z,26.90
2022-08-25T10:22:51.467Z,27.26
2022-08-25T10:25:35.807Z,27.55
2022-08-25T10:28:08.252Z,27.08
2022-08-25T10:30:36.593Z,27.51
2022-08-25T10:33:06.583Z,27.38
2022-08-25T10:35:35.177Z,26.99
2022-08-25T10:38:21.673Z,26.23
2022-08-25T10:40:51.124Z,26.25
2022-08-25T10:43:23.691Z,26.44
2022-08-25T10:45:52.529Z,26.41
2022-08-25T10:48:37.836Z,25.80
2022-08-25T10:51:18.676Z,25.80
2022-08-25T10:53:59.062Z,25.29
2022-08-25T10:56:33.601Z,25.49
2022-08-25T10:59:07.505Z,25.96
2022-08-25T11:01:54.329Z,26.89
2022-08-25T11:04:25.224Z,27.05
2022-08-25T11:07:11.993Z,27.46
2022-08-25T11:09:38.901Z,27.44
2022-08-25T11:12:17.197Z,27.45
2022-08-25T11:14:49.414Z,28.23
2022-08-25T11:17:16.992Z,28.22
2022-08-25T11:19:50.036Z,26.90
2022-08-25T11:22:25.338Z,26.60
2022-08-25T11:24:55.030Z,26.87
2022-08-25T11:27:21.890Z,26.63
2022-08-25T11:30:02.120Z,26.48
2022-08-25T11:32:32.310Z,27.14
2022-08-25T11:35:00.418Z,26.96
2022-08-25T11:37:27.322Z,27.47
2022-08-25T11:40:08.964Z,27.97
2022-08-25T11:42:52.860Z,27.75
2022-08-25T11:45:32.556Z,28.39
2022-08-25T11:48:02.536Z,28.66
2022-08-25T11:50:33.249Z,28.73
2022-08-25T11:53:19.114Z,28.58
2022-08-25T11:56:02.283Z,28.55
2022-08-25T11:58:28.476Z,28.49
2022-08-25T12:00:57.371Z,28.80
2022-08-25T12:03:32.676Z,28.48
2022-08-25T12:06:17.517Z,28.70
2022-08-25T12:08:50.914Z,28.70
2022-08-25T12:11:35.966Z,28.10
2022-08-25T12:14:14.436Z,27.41
2022-08-25T12:16:41.739Z,27.66
2022-08-25T12:19:22.623Z,27.77
2022-08-25T12:21:49.460Z,27.62
2022-08-25T12:24:16.420Z,27.25
2022-08-25T12:26:57.130Z,27.14
2022-08-25T12:29:27.668Z,27.23
2022-08-25T12:31:57.478Z,27.33
2022-08-25T12:34:49.431Z,27.35
2022-08-25T12:37:19.073Z,27.80
2022-08-25T12:39:49.748Z,27.32
2022-08-25T12:42:24.709Z,26.54
2022-08-25T12:45:09.694Z,26.11
2022-08-25T12:47:36.533Z,25.66
2022-08-25T12:50:21.564Z,25.56
2022-08-25T12:52:48.219Z,25.38
2022-08-25T12:55:14.463Z,26.34
2022-08-25T12:57:41.966Z,27.12
2022-08-25T13:00:18.443Z,27.44
2022-08-25T13:03:02.313Z,27.53
2022-08-25T13:05:44.717Z,27.66
2022-08-25T13:08:34.059Z,27.54
2022-08-25T13:11:11.232Z,27.32
2022-08-25T13:13:46.751Z,27.58
2022-08-25T13:16:17.215Z,27.52
2022-08-25T13:18:44.500Z,27.58
2022-08-25T13:21:23.063Z,27.53
2022-08-25T13:23:50.077Z,27.70
2022-08-25T13:26:18.144Z,27.67
2022-08-25T13:28:50.152Z,27.62
2022-08-25T13:31:20.326Z,27.69
2022-08-25T13:33:50.897Z,27.59
2022-08-25T13:36:21.079Z,27.58
2022-08-25T13:38:47.652Z,27.55
2022-08-25T13:41:17.526Z,27.64
2022-08-25T13:43:44.461Z,27.71
2022-08-25T13:46:10.847Z,27.40
2022-08-25T13:48:37.968Z,27.55
2022-08-25T13:51:08.204Z,27.66
2022-08-25T13:53:35.122Z,27.61
2022-08-25T13:56:01.750Z,27.61
2022-08-25T13:58:34.321Z,27.48
2022-08-25T14:01:22.861Z,27.43
2022-08-25T14:04:19.953Z,27.63
2022-08-25T14:06:46.226Z,27.69
2022-08-25T14:09:13.909Z,27.51
2022-08-25T14:11:44.533Z,27.50
2022-08-25T14:14:11.872Z,27.44
2022-08-25T14:16:47.845Z,27.44
2022-08-25T14:19:19.358Z,27.48
2022-08-25T14:21:46.383Z,27.29
2022-08-25T14:24:16.385Z,27.39
2022-08-25T14:26:53.987Z,27.45
2022-08-25T14:29:21.088Z,27.42
2022-08-25T14:31:47.444Z,27.49
2022-08-25T14:34:15.313Z,27.44
2022-08-25T14:36:41.548Z,27.51
2022-08-25T14:39:11.102Z,27.45
2022-08-25T14:41:38.808Z,27.48
2022-08-25T14:44:05.074Z,27.35
2022-08-25T14:46:32.096Z,27.38
2022-08-25T14:48:58.910Z,27.36
2022-08-25T14:51:25.522Z,27.38
2022-08-25T14:53:53.951Z,27.25
2022-08-25T14:56:20.204Z,27.14
2022-08-25T14:58:50.850Z,27.15
2022-08-25T15:01:17.960Z,27.00
2022-08-25T15:03:47.886Z,27.07
2022-08-25T15:06:15.333Z,27.08
2022-08-25T15:08:41.582Z,26.96
2022-08-25T15:11:08.945Z,26.81
2022-08-25T15:13:35.284Z,26.75
2022-08-25T15:16:01.550Z,27.07
2022-08-25T15:18:28.962Z,27.09
2022-08-25T15:20:55.208Z,27.21
2022-08-25T15:23:23.540Z,27.11
2022-08-25T15:25:52.807Z,27.21
2022-08-25T15:28:21.797Z,26.80
2022-08-25T15:30:48.644Z,26.98
2022-08-25T15:33:16.659Z,26.59
2022-08-25T15:35:43.525Z,26.70
2022-08-25T15:38:11.389Z,26.56
2022-08-25T15:40:37.776Z,26.56
2022-08-25T15:43:04.331Z,26.59
2022-08-25T15:45:30.715Z,26.43
2022-08-25T15:47:56.994Z,26.10
2022-08-25T15:50:26.036Z,25.94
2022-08-25T15:52:52.568Z,25.84
2022-08-25T15:55:19.924Z,25.69
2022-08-25T15:57:46.420Z,25.51
2022-08-25T16:00:13.684Z,25.49
2022-08-25T16:02:43.058Z,25.71
2022-08-25T16:05:11.881Z,25.66
2022-08-25T16:07:39.726Z,25.66
2022-08-25T16:10:06.094Z,25.78
2022-08-25T16:12:32.339Z,25.70
2022-08-25T16:14:58.581Z,25.66
2022-08-25T16:17:24.875Z,25.61
2022-08-25T16:19:51.140Z,25.58
2022-08-25T16:22:17.421Z,25.40
2022-08-25T16:24:43.660Z,25.26
2022-08-25T16:27:11.878Z,25.12
2022-08-25T16:29:38.782Z,25.00
2022-08-25T16:32:05.305Z,24.95
2022-08-25T16:34:31.847Z,24.97
2022-08-25T16:37:00.723Z,25.00
2022-08-25T16:39:27.214Z,24.97
2022-08-25T16:41:53.478Z,24.94
2022-08-25T16:44:22.448Z,24.78
2022-08-25T16:46:48.935Z,24.90
2022-08-25T16:49:17.146Z,24.91
2022-08-25T16:51:43.638Z,24.80
2022-08-25T16:54:10.313Z,24.69
2022-08-25T16:56:37.081Z,24.69
2022-08-25T16:59:03.812Z,24.71
2022-08-25T17:01:32.625Z,24.68
2022-08-25T17:03:58.965Z,24.59
2022-08-25T17:06:25.791Z,24.44
2022-08-25T17:08:52.026Z,24.33
2022-08-25T17:11:21.501Z,24.31
2022-08-25T17:13:49.714Z,24.35
2022-08-25T17:16:16.386Z,24.39
2022-08-25T17:18:42.892Z,24.37
2022-08-25T17:21:19.517Z,24.29
2022-08-25T17:23:51.319Z,24.04
2022-08-25T17:26:17.754Z,24.08
2022-08-25T17:28:44.102Z,24.09
2022-08-25T17:31:10.651Z,24.05
2022-08-25T17:33:36.939Z,23.87
2022-08-25T17:36:04.860Z,23.88
2022-08-25T17:38:31.113Z,23.90
2022-08-25T17:41:00.571Z,23.84
2022-08-25T17:43:26.861Z,23.73
2022-08-25T17:45:54.414Z,23.74
2022-08-25T17:48:20.921Z,23.56
2022-08-25T17:50:47.360Z,23.50
2022-08-25T17:53:13.606Z,23.56
2022-08-25T17:55:43.192Z,23.37
2022-08-25T17:58:11.941Z,23.39
2022-08-25T18:00:43.710Z,23.41
2022-08-25T18:03:10.428Z,23.33
2022-08-25T18:05:37.045Z,23.21
2022-08-25T18:08:03.942Z,23.15
2022-08-25T18:10:36.452Z,23.09
2022-08-25T18:13:02.693Z,23.07
2022-08-25T18:15:29.277Z,22.90
2022-08-25T18:17:56.544Z,22.85
2022-08-25T18:20:23.696Z,22.76
2022-08-25T18:22:50.009Z,22.75
2022-08-25T18:25:16.909Z,22.64
2022-08-25T18:27:43.170Z,22.69
2022-08-25T18:30:09.575Z,22.69
2022-08-25T18:32:35.889Z,22.69
2022-08-25T18:35:02.210Z,22.54
2022-08-25T18:37:28.438Z,22.43
2022-08-25T18:39:54.715Z,22.53
2022-08-25T18:42:20.986Z,22.37
2022-08-25T18:44:47.554Z,22.27
2022-08-25T18:47:13.818Z,22.18
2022-08-25T18:49:40.044Z,22.19
2022-08-25T18:52:07.382Z,22.06
2022-08-25T18:54:33.774Z,22.05
2022-08-25T18:57:02.458Z,22.08
2022-08-25T18:59:28.694Z,22.03
2022-08-25T19:01:55.007Z,21.97
2022-08-25T19:04:31.343Z,21.96
2022-08-25T19:06:58.305Z,21.90
2022-08-25T19:09:24.545Z,21.79
2022-08-25T19:11:50.803Z,21.79
2022-08-25T19:14:20.982Z,21.83
2022-08-25T19:16:47.226Z,21.70
2022-08-25T19:19:13.465Z,21.61
2022-08-25T19:21:40.212Z,21.56
2022-08-25T19:24:06.906Z,21.58
2022-08-25T19:26:33.177Z,21.70
2022-08-25T19:28:59.411Z,21.66
2022-08-25T19:31:26.340Z,21.76
2022-08-25T19:33:53.986Z,21.56
2022-08-25T19:36:23.051Z,21.59
2022-08-25T19:38:49.825Z,21.30
2022-08-25T19:41:18.128Z,21.36
2022-08-25T19:43:55.662Z,21.43
2022-08-25T19:46:24.222Z,21.38
2022-08-25T19:48:50.661Z,21.35
2022-08-25T19:51:19.198Z,21.28
2022-08-25T19:53:53.617Z,21.25
2022-08-25T19:56:21.121Z,21.28
2022-08-25T19:58:47.485Z,21.17
2022-08-25T20:01:13.795Z,21.22
2022-08-25T20:03:44.499Z,21.26
2022-08-25T20:06:10.745Z,21.28
2022-08-25T20:08:37.297Z,21.27
2022-08-25T20:11:03.549Z,21.16
2022-08-25T20:13:29.789Z,21.02
2022-08-25T20:15:57.685Z,20.92
2022-08-25T20:18:25.031Z,21.02
2022-08-25T20:20:51.308Z,21.05
2022-08-25T20:23:17.553Z,21.03
2022-08-25T20:25:45.661Z,20.99
2022-08-25T20:28:12.696Z,21.03
2022-08-25T20:30:45.077Z,20.82
2022-08-25T20:33:11.348Z,20.82
2022-08-25T20:35:38.120Z,20.82
2022-08-25T20:38:05.244Z,20.86
2022-08-25T20:40:31.591Z,20.81
2022-08-25T20:42:58.685Z,20.74
2022-08-25T20:45:25.293Z,20.69
2022-08-25T20:47:51.545Z,20.59
2022-08-25T20:50:17.777Z,20.72
2022-08-25T20:52:44.097Z,20.71
2022-08-25T20:55:11.027Z,20.67
2022-08-25T20:57:37.770Z,20.65
2022-08-25T21:00:04.926Z,20.75
2022-08-25T21:02:31.259Z,20.73
2022-08-25T21:04:57.637Z,20.68
2022-08-25T21:07:23.954Z,20.63
2022-08-25T21:09:50.451Z,20.65
2022-08-25T21:12:17.811Z,20.73
2022-08-25T21:14:44.100Z,20.69
2022-08-25T21:17:13.918Z,20.70
2022-08-25T21:19:40.285Z,20.58
2022-08-25T21:22:08.152Z,20.53
2022-08-25T21:24:34.385Z,20.57
2022-08-25T21:27:01.878Z,20.50
2022-08-25T21:29:28.503Z,20.66
2022-08-25T21:31:55.106Z,20.65
2022-08-25T21:34:21.357Z,20.59
2022-08-25T21:36:48.656Z,20.61
2022-08-25T21:39:14.949Z,20.60
2022-08-25T21:41:41.211Z,20.61
2022-08-25T21:44:07.647Z,20.49
2022-08-25T21:46:34.117Z,20.44
2022-08-25T21:49:00.651Z,20.44
2022-08-25T21:51:33.274Z,20.47
2022-08-25T21:54:03.445Z,20.45
2022-08-25T21:56:29.679Z,20.34
2022-08-25T21:58:55.925Z,20.38
2022-08-25T22:01:22.233Z,20.39
2022-08-25T22:03:48.763Z,20.43
2022-08-25T22:06:15.001Z,20.45
2022-08-25T22:08:42.663Z,20.27
2022-08-25T22:11:09.137Z,20.17
2022-08-25T22:13:35.686Z,20.17
2022-08-25T22:16:02.068Z,20.24
2022-08-25T22:18:28.444Z,20.21
2022-08-25T22:20:54.673Z,20.27
2022-08-25T22:23:22.229Z,20.24
2022-08-25T22:25:54.460Z,20.28
2022-08-25T22:28:20.970Z,20.27
2022-08-25T22:30:47.497Z,20.16
2022-08-25T22:33:14.111Z,20.20
2022-08-25T22:35:40.642Z,20.23
2022-08-25T22:38:07.366Z,20.24
2022-08-25T22:40:38.754Z,20.25
2022-08-25T22:43:05.519Z,20.21
2022-08-25T22:45:32.066Z,20.15
2022-08-25T22:47:59.521Z,20.17
2022-08-25T22:50:26.866Z,20.16
2022-08-25T22:52:53.109Z,20.15
2022-08-25T22:55:19.733Z,20.09
2022-08-25T22:57:48.256Z,20.03
2022-08-25T23:00:14.889Z,19.94
2022-08-25T23:02:42.216Z,20.02
2022-08-25T23:05:08.734Z,20.15
2022-08-25T23:07:35.444Z,20.10
2022-08-25T23:10:02.628Z,20.13
2022-08-25T23:12:29.195Z,20.14
2022-08-25T23:14:55.446Z,20.09
2022-08-25T23:17:21.683Z,20.17
2022-08-25T23:19:48.066Z,20.17
2022-08-25T23:22:16.198Z,20.19
2022-08-25T23:24:43.039Z,20.24
2022-08-25T23:27:09.954Z,20.21
2022-08-25T23:29:37.469Z,20.34
2022-08-25T23:32:04.012Z,20.42
2022-08-25T23:34:30.306Z,20.39
2022-08-25T23:36:56.547Z,20.38
2022-08-25T23:39:22.798Z,20.44
2022-08-25T23:41:49.383Z,20.53
2022-08-25T23:44:17.204Z,20.55
2022-08-25T23:46:43.868Z,20.62
2022-08-25T23:49:10.748Z,20.55
2022-08-25T23:51:37.201Z,20.60
2022-08-25T23:54:04.437Z,20.54
2022-08-25T23:56:30.692Z,20.47
2022-08-25T23:58:56.934Z,20.51
